sensor_id;sensor_type;location;lat;lon;timestamp;pressure;altitude;pressure_sealevel;temperature;humidity
12785;BME280;6456;42.680;23.260;2022-10-31T00:00:29;95113.53;;;15.68;57.02
12785;BME280;6456;42.680;23.260;2022-10-31T00:02:56;95063.91;;;15.33;57.20
12785;BME280;6456;42.680;23.260;2022-10-31T00:05:23;95125.97;;;15.79;57.25
12785;BME280;6456;42.680;23.260;2022-10-31T00:07:53;95127.03;;;15.78;57.46
12785;BME280;6456;42.680;23.260;2022-10-31T00:10:20;95108.69;;;15.65;57.76
12785;BME280;6456;42.680;23.260;2022-10-31T00:12:47;95110.53;;;15.64;60.51
12785;BME280;6456;42.680;23.260;2022-10-31T00:15:14;95065.53;;;15.34;59.00
12785;BME280;6456;42.680;23.260;2022-10-31T00:17:41;95052.06;;;15.24;58.02
12785;BME280;6456;42.680;23.260;2022-10-31T00:20:08;95062.66;;;15.24;58.21
12785;BME280;6456;42.680;23.260;2022-10-31T00:22:36;95031.53;;;15.08;58.03
12785;BME280;6456;42.680;23.260;2022-10-31T00:25:05;95055.06;;;15.28;58.42
12785;BME280;6456;42.680;23.260;2022-10-31T00:27:32;95135.44;;;15.75;58.49
12785;BME280;6456;42.680;23.260;2022-10-31T00:29:59;95047.78;;;15.23;58.79
12785;BME280;6456;42.680;23.260;2022-10-31T00:32:28;95107.41;;;15.56;58.98
12785;BME280;6456;42.680;23.260;2022-10-31T00:34:55;95084.91;;;15.35;59.26
12785;BME280;6456;42.680;23.260;2022-10-31T00:37:22;95070.38;;;15.37;59.19
12785;BME280;6456;42.680;23.260;2022-10-31T00:39:49;95045.50;;;15.15;59.46
12785;BME280;6456;42.680;23.260;2022-10-31T00:42:17;95136.81;;;15.66;59.55
12785;BME280;6456;42.680;23.260;2022-10-31T00:44:44;95118.50;;;15.64;59.90
12785;BME280;6456;42.680;23.260;2022-10-31T00:47:11;95038.78;;;15.01;59.84
12785;BME280;6456;42.680;23.260;2022-10-31T00:49:41;95035.22;;;15.07;60.15
12785;BME280;6456;42.680;23.260;2022-10-31T00:52:08;95032.13;;;15.10;60.21
12785;BME280;6456;42.680;23.260;2022-10-31T00:54:35;95056.53;;;15.24;60.40
12785;BME280;6456;42.680;23.260;2022-10-31T00:57:02;95095.97;;;15.43;60.50
12785;BME280;6456;42.680;23.260;2022-10-31T00:59:30;95128.88;;;15.54;60.67
12785;BME280;6456;42.680;23.260;2022-10-31T01:01:57;95099.69;;;15.43;60.80
12785;BME280;6456;42.680;23.260;2022-10-31T01:04:25;95025.63;;;14.83;60.79
12785;BME280;6456;42.680;23.260;2022-10-31T01:06:52;95045.91;;;14.89;61.08
12785;BME280;6456;42.680;23.260;2022-10-31T01:09:19;95130.50;;;15.55;61.16
12785;BME280;6456;42.680;23.260;2022-10-31T01:11:46;95114.22;;;15.52;61.11
12785;BME280;6456;42.680;23.260;2022-10-31T01:14:13;95068.28;;;15.16;61.23
12785;BME280;6456;42.680;23.260;2022-10-31T01:16:41;95045.47;;;14.92;61.50
12785;BME280;6456;42.680;23.260;2022-10-31T01:19:08;95115.47;;;15.37;62.20
12785;BME280;6456;42.680;23.260;2022-10-31T01:21:35;95047.66;;;14.95;62.49
12785;BME280;6456;42.680;23.260;2022-10-31T01:24:03;95094.34;;;15.19;63.00
12785;BME280;6456;42.680;23.260;2022-10-31T01:26:32;95036.34;;;14.76;64.09
12785;BME280;6456;42.680;23.260;2022-10-31T01:29:01;95025.72;;;14.65;64.54
12785;BME280;6456;42.680;23.260;2022-10-31T01:31:29;95105.53;;;15.21;64.80
12785;BME280;6456;42.680;23.260;2022-10-31T01:33:58;95050.75;;;14.92;65.11
12785;BME280;6456;42.680;23.260;2022-10-31T01:36:27;94985.50;;;14.45;65.30
12785;BME280;6456;42.680;23.260;2022-10-31T01:38:56;95037.22;;;14.70;65.57
12785;BME280;6456;42.680;23.260;2022-10-31T01:41:28;95015.59;;;14.62;65.57
12785;BME280;6456;42.680;23.260;2022-10-31T01:43:57;95110.63;;;15.23;65.48
12785;BME280;6456;42.680;23.260;2022-10-31T01:46:27;95129.19;;;15.34;65.59
12785;BME280;6456;42.680;23.260;2022-10-31T01:48:55;95141.06;;;15.43;65.77
12785;BME280;6456;42.680;23.260;2022-10-31T01:51:27;95085.13;;;15.10;65.00
12785;BME280;6456;42.680;23.260;2022-10-31T01:53:59;95065.41;;;14.95;64.94
12785;BME280;6456;42.680;23.260;2022-10-31T01:56:28;94996.44;;;14.48;64.76
12785;BME280;6456;42.680;23.260;2022-10-31T01:58:56;95053.28;;;14.87;64.76
12785;BME280;6456;42.680;23.260;2022-10-31T02:01:26;95073.94;;;15.08;64.57
12785;BME280;6456;42.680;23.260;2022-10-31T02:03:54;95126.91;;;15.50;65.00
12785;BME280;6456;42.680;23.260;2022-10-31T02:06:30;95141.88;;;15.56;65.59
12785;BME280;6456;42.680;23.260;2022-10-31T02:09:00;95117.66;;;15.40;65.96
12785;BME280;6456;42.680;23.260;2022-10-31T02:11:29;95028.16;;;14.78;65.85
12785;BME280;6456;42.680;23.260;2022-10-31T02:13:57;95115.25;;;15.51;66.13
12785;BME280;6456;42.680;23.260;2022-10-31T02:16:24;95088.03;;;15.32;65.73
12785;BME280;6456;42.680;23.260;2022-10-31T02:18:51;95075.66;;;15.26;65.73
12785;BME280;6456;42.680;23.260;2022-10-31T02:21:22;95072.25;;;15.25;65.89
12785;BME280;6456;42.680;23.260;2022-10-31T02:24:13;95109.72;;;15.40;66.08
12785;BME280;6456;42.680;23.260;2022-10-31T02:26:54;95141.44;;;15.59;66.11
12785;BME280;6456;42.680;23.260;2022-10-31T02:32:29;95133.56;;;15.40;66.33
12785;BME280;6456;42.680;23.260;2022-10-31T02:35:09;95150.44;;;15.58;65.99
12785;BME280;6456;42.680;23.260;2022-10-31T02:37:43;95152.50;;;15.56;66.49
12785;BME280;6456;42.680;23.260;2022-10-31T02:40:17;95150.09;;;15.54;66.60
12785;BME280;6456;42.680;23.260;2022-10-31T02:42:51;95100.91;;;15.17;66.84
12785;BME280;6456;42.680;23.260;2022-10-31T02:45:26;95156.22;;;15.55;66.96
12785;BME280;6456;42.680;23.260;2022-10-31T02:47:59;95142.19;;;15.36;67.39
12785;BME280;6456;42.680;23.260;2022-10-31T02:50:29;95150.50;;;15.39;67.76
12785;BME280;6456;42.680;23.260;2022-10-31T02:52:58;95074.63;;;14.92;67.86
12785;BME280;6456;42.680;23.260;2022-10-31T02:55:48;95156.97;;;15.43;68.47
12785;BME280;6456;42.680;23.260;2022-10-31T02:58:20;95099.28;;;15.04;68.48
12785;BME280;6456;42.680;23.260;2022-10-31T03:01:01;95154.31;;;15.32;68.62
12785;BME280;6456;42.680;23.260;2022-10-31T03:03:44;95099.72;;;14.90;68.62
12785;BME280;6456;42.680;23.260;2022-10-31T03:06:20;95112.78;;;15.14;68.44
12785;BME280;6456;42.680;23.260;2022-10-31T03:08:54;95155.69;;;15.34;68.56
12785;BME280;6456;42.680;23.260;2022-10-31T03:11:29;95122.69;;;15.07;68.24
12785;BME280;6456;42.680;23.260;2022-10-31T03:14:04;95170.84;;;15.46;68.41
12785;BME280;6456;42.680;23.260;2022-10-31T03:16:42;95160.53;;;15.37;68.15
12785;BME280;6456;42.680;23.260;2022-10-31T03:19:16;95133.53;;;15.17;68.32
12785;BME280;6456;42.680;23.260;2022-10-31T03:21:46;95088.44;;;14.94;68.42
12785;BME280;6456;42.680;23.260;2022-10-31T03:24:15;95159.25;;;15.28;68.57
12785;BME280;6456;42.680;23.260;2022-10-31T03:26:46;95169.53;;;15.36;68.78
12785;BME280;6456;42.680;23.260;2022-10-31T03:29:16;95150.59;;;15.21;68.85
12785;BME280;6456;42.680;23.260;2022-10-31T03:31:49;95131.66;;;15.06;68.96
12785;BME280;6456;42.680;23.260;2022-10-31T03:34:19;95098.66;;;14.79;69.07
12785;BME280;6456;42.680;23.260;2022-10-31T03:36:49;95181.50;;;15.27;69.07
12785;BME280;6456;42.680;23.260;2022-10-31T03:39:19;95106.16;;;14.82;68.90
12785;BME280;6456;42.680;23.260;2022-10-31T03:41:51;95165.94;;;15.19;69.21
12785;BME280;6456;42.680;23.260;2022-10-31T03:44:21;95111.22;;;14.84;69.22
12785;BME280;6456;42.680;23.260;2022-10-31T03:46:49;95123.47;;;14.96;69.34
12785;BME280;6456;42.680;23.260;2022-10-31T03:49:16;95089.56;;;14.75;69.32
12785;BME280;6456;42.680;23.260;2022-10-31T03:51:49;95081.78;;;14.50;69.82
12785;BME280;6456;42.680;23.260;2022-10-31T03:54:24;95190.69;;;15.13;70.09
12785;BME280;6456;42.680;23.260;2022-10-31T03:56:53;95134.47;;;14.82;69.98
12785;BME280;6456;42.680;23.260;2022-10-31T03:59:26;95175.69;;;15.07;70.17
12785;BME280;6456;42.680;23.260;2022-10-31T04:01:58;95143.69;;;14.79;70.29
12785;BME280;6456;42.680;23.260;2022-10-31T04:04:26;95152.22;;;14.81;70.42
12785;BME280;6456;42.680;23.260;2022-10-31T04:06:56;95127.84;;;14.61;70.61
12785;BME280;6456;42.680;23.260;2022-10-31T04:09:26;95142.75;;;14.73;70.66
12785;BME280;6456;42.680;23.260;2022-10-31T04:11:56;95203.50;;;15.16;70.77
12785;BME280;6456;42.680;23.260;2022-10-31T04:14:26;95157.25;;;14.71;71.17
12785;BME280;6456;42.680;23.260;2022-10-31T04:16:54;95181.09;;;14.71;71.71
12785;BME280;6456;42.680;23.260;2022-10-31T04:19:21;95167.53;;;14.49;72.17
12785;BME280;6456;42.680;23.260;2022-10-31T04:21:48;95116.72;;;14.23;72.43
12785;BME280;6456;42.680;23.260;2022-10-31T04:24:16;95120.69;;;14.13;72.77
12785;BME280;6456;42.680;23.260;2022-10-31T04:26:43;95137.28;;;14.21;72.95
12785;BME280;6456;42.680;23.260;2022-10-31T04:29:10;95148.81;;;14.33;72.91
12785;BME280;6456;42.680;23.260;2022-10-31T04:31:37;95154.69;;;14.35;73.00
12785;BME280;6456;42.680;23.260;2022-10-31T04:34:04;95203.19;;;14.65;72.98
12785;BME280;6456;42.680;23.260;2022-10-31T04:36:32;95132.75;;;14.28;73.15
12785;BME280;6456;42.680;23.260;2022-10-31T04:38:59;95131.50;;;14.30;72.95
12785;BME280;6456;42.680;23.260;2022-10-31T04:41:27;95106.72;;;14.06;72.86
12785;BME280;6456;42.680;23.260;2022-10-31T04:43:54;95189.56;;;14.61;73.48
12785;BME280;6456;42.680;23.260;2022-10-31T04:46:21;95176.41;;;14.55;73.59
12785;BME280;6456;42.680;23.260;2022-10-31T04:48:48;95182.88;;;14.59;73.67
12785;BME280;6456;42.680;23.260;2022-10-31T04:51:15;95111.78;;;14.08;73.34
12785;BME280;6456;42.680;23.260;2022-10-31T04:53:42;95192.44;;;14.60;73.68
12785;BME280;6456;42.680;23.260;2022-10-31T04:56:09;95187.03;;;14.55;73.88
12785;BME280;6456;42.680;23.260;2022-10-31T04:58:37;95178.34;;;14.48;73.86
12785;BME280;6456;42.680;23.260;2022-10-31T05:01:04;95172.16;;;14.36;73.95
12785;BME280;6456;42.680;23.260;2022-10-31T05:03:31;95228.09;;;14.75;73.83
12785;BME280;6456;42.680;23.260;2022-10-31T05:05:57;95166.28;;;14.34;74.12
12785;BME280;6456;42.680;23.260;2022-10-31T05:08:24;95228.75;;;14.71;74.27
12785;BME280;6456;42.680;23.260;2022-10-31T05:10:51;95205.84;;;14.47;74.75
12785;BME280;6456;42.680;23.260;2022-10-31T05:13:18;95196.13;;;14.41;75.19
12785;BME280;6456;42.680;23.260;2022-10-31T05:15:49;95175.38;;;14.20;75.73
12785;BME280;6456;42.680;23.260;2022-10-31T05:18:16;95190.03;;;14.22;76.10
12785;BME280;6456;42.680;23.260;2022-10-31T05:20:42;95212.47;;;14.38;76.06
12785;BME280;6456;42.680;23.260;2022-10-31T05:23:17;95250.72;;;14.60;76.13
12785;BME280;6456;42.680;23.260;2022-10-31T05:25:44;95232.31;;;14.47;76.22
12785;BME280;6456;42.680;23.260;2022-10-31T05:28:11;95170.38;;;14.11;76.36
12785;BME280;6456;42.680;23.260;2022-10-31T05:30:38;95189.34;;;14.27;76.24
12785;BME280;6456;42.680;23.260;2022-10-31T05:33:06;95250.56;;;14.55;76.66
12785;BME280;6456;42.680;23.260;2022-10-31T05:35:33;95252.63;;;14.53;76.92
12785;BME280;6456;42.680;23.260;2022-10-31T05:38:00;95213.75;;;14.29;76.82
12785;BME280;6456;42.680;23.260;2022-10-31T05:40:27;95190.09;;;13.97;77.44
12785;BME280;6456;42.680;23.260;2022-10-31T05:42:56;95259.38;;;14.31;77.71
12785;BME280;6456;42.680;23.260;2022-10-31T05:45:24;95272.28;;;14.21;78.97
12785;BME280;6456;42.680;23.260;2022-10-31T05:47:52;95272.59;;;14.12;79.56
12785;BME280;6456;42.680;23.260;2022-10-31T05:50:21;95252.50;;;14.05;79.57
12785;BME280;6456;42.680;23.260;2022-10-31T05:52:54;95195.03;;;13.69;79.59
12785;BME280;6456;42.680;23.260;2022-10-31T05:55:21;95248.88;;;13.99;80.17
12785;BME280;6456;42.680;23.260;2022-10-31T05:57:48;95261.53;;;14.15;79.89
12785;BME280;6456;42.680;23.260;2022-10-31T06:00:16;95194.97;;;13.76;79.66
12785;BME280;6456;42.680;23.260;2022-10-31T06:02:43;95239.31;;;13.98;79.86
12785;BME280;6456;42.680;23.260;2022-10-31T06:05:10;95223.56;;;13.85;80.03
12785;BME280;6456;42.680;23.260;2022-10-31T06:07:39;95164.31;;;13.50;79.88
12785;BME280;6456;42.680;23.260;2022-10-31T06:10:07;95303.56;;;14.30;80.43
12785;BME280;6456;42.680;23.260;2022-10-31T06:12:37;95260.38;;;14.11;80.29
12785;BME280;6456;42.680;23.260;2022-10-31T06:15:06;95285.41;;;14.34;80.37
12785;BME280;6456;42.680;23.260;2022-10-31T06:17:34;95291.53;;;14.34;80.29
12785;BME280;6456;42.680;23.260;2022-10-31T06:20:01;95290.94;;;14.32;79.56
12785;BME280;6456;42.680;23.260;2022-10-31T06:22:28;95296.06;;;14.27;79.28
12785;BME280;6456;42.680;23.260;2022-10-31T06:24:56;95306.41;;;14.29;79.12
12785;BME280;6456;42.680;23.260;2022-10-31T06:27:23;95223.28;;;13.75;79.26
12785;BME280;6456;42.680;23.260;2022-10-31T06:29:51;95226.03;;;13.80;78.96
12785;BME280;6456;42.680;23.260;2022-10-31T06:32:18;95183.97;;;13.54;78.69
12785;BME280;6456;42.680;23.260;2022-10-31T06:34:45;95279.03;;;14.17;78.50
12785;BME280;6456;42.680;23.260;2022-10-31T06:37:14;95312.19;;;14.44;78.27
12785;BME280;6456;42.680;23.260;2022-10-31T06:39:41;95243.63;;;13.93;78.51
12785;BME280;6456;42.680;23.260;2022-10-31T06:42:09;95240.25;;;13.86;78.99
12785;BME280;6456;42.680;23.260;2022-10-31T06:44:36;95237.50;;;13.74;78.96
12785;BME280;6456;42.680;23.260;2022-10-31T06:47:03;95309.13;;;14.22;79.28
12785;BME280;6456;42.680;23.260;2022-10-31T06:49:30;95320.22;;;14.37;79.03
12785;BME280;6456;42.680;23.260;2022-10-31T06:52:00;95329.41;;;14.35;79.46
12785;BME280;6456;42.680;23.260;2022-10-31T06:54:28;95264.91;;;14.04;79.13
12785;BME280;6456;42.680;23.260;2022-10-31T06:56:55;95323.59;;;14.44;79.16
12785;BME280;6456;42.680;23.260;2022-10-31T06:59:23;95285.91;;;14.24;79.04
12785;BME280;6456;42.680;23.260;2022-10-31T07:01:50;95314.94;;;14.37;79.24
12785;BME280;6456;42.680;23.260;2022-10-31T07:04:17;95276.94;;;14.25;79.12
12785;BME280;6456;42.680;23.260;2022-10-31T07:06:44;95270.94;;;14.11;79.95
12785;BME280;6456;42.680;23.260;2022-10-31T07:09:11;95328.38;;;14.54;79.94
12785;BME280;6456;42.680;23.260;2022-10-31T07:11:38;95235.41;;;14.01;80.12
12785;BME280;6456;42.680;23.260;2022-10-31T07:14:05;95312.72;;;14.52;79.93
12785;BME280;6456;42.680;23.260;2022-10-31T07:16:33;95323.69;;;14.56;79.96
12785;BME280;6456;42.680;23.260;2022-10-31T07:19:00;95307.16;;;14.60;79.58
12785;BME280;6456;42.680;23.260;2022-10-31T07:21:27;95318.41;;;14.74;79.88
12785;BME280;6456;42.680;23.260;2022-10-31T07:23:54;95316.31;;;14.76;79.69
12785;BME280;6456;42.680;23.260;2022-10-31T07:26:21;95306.94;;;14.80;79.50
12785;BME280;6456;42.680;23.260;2022-10-31T07:28:48;95306.47;;;14.83;79.38
12785;BME280;6456;42.680;23.260;2022-10-31T07:31:15;95229.09;;;14.45;78.94
12785;BME280;6456;42.680;23.260;2022-10-31T07:33:43;95209.75;;;14.44;78.83
12785;BME280;6456;42.680;23.260;2022-10-31T07:36:10;95236.28;;;14.56;78.96
12785;BME280;6456;42.680;23.260;2022-10-31T07:38:37;95257.16;;;14.82;78.80
12785;BME280;6456;42.680;23.260;2022-10-31T07:41:04;95310.88;;;15.07;79.14
12785;BME280;6456;42.680;23.260;2022-10-31T07:43:31;95274.06;;;14.99;79.22
12785;BME280;6456;42.680;23.260;2022-10-31T07:45:58;95249.50;;;14.92;78.76
12785;BME280;6456;42.680;23.260;2022-10-31T07:48:25;95283.59;;;15.18;78.83
12785;BME280;6456;42.680;23.260;2022-10-31T07:50:54;95156.13;;;14.49;79.18
12785;BME280;6456;42.680;23.260;2022-10-31T07:53:21;95208.13;;;14.91;78.54
12785;BME280;6456;42.680;23.260;2022-10-31T07:55:48;95203.75;;;14.85;77.94
12785;BME280;6456;42.680;23.260;2022-10-31T07:58:16;95180.53;;;14.81;79.16
12785;BME280;6456;42.680;23.260;2022-10-31T08:00:45;95254.13;;;15.26;78.05
12785;BME280;6456;42.680;23.260;2022-10-31T08:03:14;95285.59;;;15.53;78.01
12785;BME280;6456;42.680;23.260;2022-10-31T08:05:41;95289.44;;;15.68;76.23
12785;BME280;6456;42.680;23.260;2022-10-31T08:08:13;95242.06;;;15.42;76.75
12785;BME280;6456;42.680;23.260;2022-10-31T08:10:41;95244.47;;;15.43;76.25
12785;BME280;6456;42.680;23.260;2022-10-31T08:13:09;95244.88;;;15.59;76.49
12785;BME280;6456;42.680;23.260;2022-10-31T08:15:37;95252.66;;;15.72;76.10
12785;BME280;6456;42.680;23.260;2022-10-31T08:18:10;95248.84;;;15.79;75.53
12785;BME280;6456;42.680;23.260;2022-10-31T08:20:37;95248.03;;;15.79;76.40
12785;BME280;6456;42.680;23.260;2022-10-31T08:23:05;95264.09;;;15.95;75.09
12785;BME280;6456;42.680;23.260;2022-10-31T08:25:34;95242.97;;;15.89;75.48
12785;BME280;6456;42.680;23.260;2022-10-31T08:28:01;95301.41;;;16.35;75.65
12785;BME280;6456;42.680;23.260;2022-10-31T08:30:47;95303.69;;;16.43;75.12
12785;BME280;6456;42.680;23.260;2022-10-31T08:33:16;95251.97;;;16.11;74.70
12785;BME280;6456;42.680;23.260;2022-10-31T08:35:43;95303.72;;;16.55;74.22
12785;BME280;6456;42.680;23.260;2022-10-31T08:38:11;95301.75;;;16.62;73.95
12785;BME280;6456;42.680;23.260;2022-10-31T08:40:40;95241.47;;;16.28;73.48
12785;BME280;6456;42.680;23.260;2022-10-31T08:43:11;95224.38;;;16.24;73.43
12785;BME280;6456;42.680;23.260;2022-10-31T08:45:38;95237.19;;;16.38;73.83
12785;BME280;6456;42.680;23.260;2022-10-31T08:48:09;95291.56;;;16.82;73.57
12785;BME280;6456;42.680;23.260;2022-10-31T08:50:37;95301.59;;;16.92;73.55
12785;BME280;6456;42.680;23.260;2022-10-31T08:53:05;95301.78;;;17.02;74.09
12785;BME280;6456;42.680;23.260;2022-10-31T08:55:33;95275.56;;;16.94;72.92
12785;BME280;6456;42.680;23.260;2022-10-31T08:58:03;95314.34;;;17.18;72.77
12785;BME280;6456;42.680;23.260;2022-10-31T09:00:30;95201.69;;;16.67;71.92
12785;BME280;6456;42.680;23.260;2022-10-31T09:02:57;95245.84;;;16.97;71.44
12785;BME280;6456;42.680;23.260;2022-10-31T09:05:25;95205.50;;;16.72;71.21
12785;BME280;6456;42.680;23.260;2022-10-31T09:07:55;95282.44;;;17.18;71.89
12785;BME280;6456;42.680;23.260;2022-10-31T09:10:23;95267.16;;;17.25;71.80
12785;BME280;6456;42.680;23.260;2022-10-31T09:12:54;95224.84;;;16.95;72.55
12785;BME280;6456;42.680;23.260;2022-10-31T09:15:23;95288.91;;;17.50;72.59
12785;BME280;6456;42.680;23.260;2022-10-31T09:17:50;95251.50;;;17.28;70.23
12785;BME280;6456;42.680;23.260;2022-10-31T09:20:19;95301.53;;;17.71;71.35
12785;BME280;6456;42.680;23.260;2022-10-31T09:22:46;95295.25;;;17.77;70.05
12785;BME280;6456;42.680;23.260;2022-10-31T09:25:13;95209.19;;;17.27;69.86
12785;BME280;6456;42.680;23.260;2022-10-31T09:27:40;95246.63;;;17.65;69.44
12785;BME280;6456;42.680;23.260;2022-10-31T09:30:07;95262.84;;;17.80;69.59
12785;BME280;6456;42.680;23.260;2022-10-31T09:32:36;95236.06;;;17.70;69.14
12785;BME280;6456;42.680;23.260;2022-10-31T09:35:03;95284.38;;;18.12;68.77
12785;BME280;6456;42.680;23.260;2022-10-31T09:37:30;95202.19;;;17.66;68.17
12785;BME280;6456;42.680;23.260;2022-10-31T09:39:57;95280.50;;;18.20;67.77
12785;BME280;6456;42.680;23.260;2022-10-31T09:42:37;95290.75;;;18.28;67.51
12785;BME280;6456;42.680;23.260;2022-10-31T09:45:11;95293.00;;;18.36;66.30
12785;BME280;6456;42.680;23.260;2022-10-31T09:47:52;95289.44;;;18.47;65.82
12785;BME280;6456;42.680;23.260;2022-10-31T09:50:27;95220.44;;;18.12;64.51
12785;BME280;6456;42.680;23.260;2022-10-31T09:53:00;95263.78;;;18.41;64.50
12785;BME280;6456;42.680;23.260;2022-10-31T09:55:36;95276.19;;;18.52;64.75
12785;BME280;6456;42.680;23.260;2022-10-31T09:58:04;95202.13;;;18.16;63.11
12785;BME280;6456;42.680;23.260;2022-10-31T10:00:31;95221.78;;;18.48;64.15
12785;BME280;6456;42.680;23.260;2022-10-31T10:03:06;95271.81;;;18.84;62.96
12785;BME280;6456;42.680;23.260;2022-10-31T10:05:40;95267.16;;;18.96;62.82
12785;BME280;6456;42.680;23.260;2022-10-31T10:08:12;95262.66;;;18.97;61.66
12785;BME280;6456;42.680;23.260;2022-10-31T10:10:48;95240.22;;;18.93;60.46
12785;BME280;6456;42.680;23.260;2022-10-31T10:13:49;95243.34;;;19.11;59.86
12785;BME280;6456;42.680;23.260;2022-10-31T10:16:31;95259.06;;;19.35;57.95
12785;BME280;6456;42.680;23.260;2022-10-31T10:19:21;95173.31;;;18.73;59.05
12785;BME280;6456;42.680;23.260;2022-10-31T10:22:00;95146.00;;;18.61;57.95
12785;BME280;6456;42.680;23.260;2022-10-31T10:24:41;95152.66;;;18.85;57.46
12785;BME280;6456;42.680;23.260;2022-10-31T10:27:16;95243.25;;;19.50;57.00
12785;BME280;6456;42.680;23.260;2022-10-31T10:29:50;95129.72;;;18.84;56.05
12785;BME280;6456;42.680;23.260;2022-10-31T10:32:22;95258.31;;;19.61;55.69
12785;BME280;6456;42.680;23.260;2022-10-31T10:34:53;95221.44;;;19.58;56.03
12785;BME280;6456;42.680;23.260;2022-10-31T10:37:25;95184.34;;;19.35;56.06
12785;BME280;6456;42.680;23.260;2022-10-31T10:39:56;95217.31;;;19.77;55.72
12785;BME280;6456;42.680;23.260;2022-10-31T10:42:26;95177.69;;;19.59;54.58
12785;BME280;6456;42.680;23.260;2022-10-31T10:45:16;95230.56;;;19.94;54.10
12785;BME280;6456;42.680;23.260;2022-10-31T10:48:07;95222.06;;;20.02;53.55
12785;BME280;6456;42.680;23.260;2022-10-31T10:50:42;95214.03;;;20.02;53.16
12785;BME280;6456;42.680;23.260;2022-10-31T10:53:19;95162.56;;;19.74;52.43
12785;BME280;6456;42.680;23.260;2022-10-31T10:56:06;95120.47;;;19.50;52.42
12785;BME280;6456;42.680;23.260;2022-10-31T10:58:38;95209.09;;;20.20;53.40
12785;BME280;6456;42.680;23.260;2022-10-31T11:01:10;95211.59;;;20.32;52.66
12785;BME280;6456;42.680;23.260;2022-10-31T11:03:38;95133.28;;;19.90;51.77
12785;BME280;6456;42.680;23.260;2022-10-31T11:06:17;95185.16;;;20.30;51.74
12785;BME280;6456;42.680;23.260;2022-10-31T11:08:47;95198.31;;;20.47;52.30
12785;BME280;6456;42.680;23.260;2022-10-31T11:11:23;95179.81;;;20.35;51.97
12785;BME280;6456;42.680;23.260;2022-10-31T11:13:58;95190.09;;;20.59;52.90
12785;BME280;6456;42.680;23.260;2022-10-31T11:16:31;95092.47;;;19.99;52.15
12785;BME280;6456;42.680;23.260;2022-10-31T11:19:15;95163.34;;;20.54;51.24
12785;BME280;6456;42.680;23.260;2022-10-31T11:21:45;95157.72;;;20.55;51.50
12785;BME280;6456;42.680;23.260;2022-10-31T11:24:17;95171.97;;;20.71;50.39
12785;BME280;6456;42.680;23.260;2022-10-31T11:26:46;95192.13;;;20.93;49.94
12785;BME280;6456;42.680;23.260;2022-10-31T11:29:16;95187.56;;;20.94;50.16
12785;BME280;6456;42.680;23.260;2022-10-31T11:31:44;95112.53;;;20.49;50.15
12785;BME280;6456;42.680;23.260;2022-10-31T11:34:16;95129.44;;;20.59;49.63
12785;BME280;6456;42.680;23.260;2022-10-31T11:36:46;95119.00;;;20.63;49.29
12785;BME280;6456;42.680;23.260;2022-10-31T11:39:17;95145.00;;;20.82;48.61
12785;BME280;6456;42.680;23.260;2022-10-31T11:41:46;95102.44;;;20.66;48.73
12785;BME280;6456;42.680;23.260;2022-10-31T11:44:16;95128.69;;;20.84;48.26
12785;BME280;6456;42.680;23.260;2022-10-31T11:46:46;95070.59;;;20.54;48.33
12785;BME280;6456;42.680;23.260;2022-10-31T11:49:16;95150.72;;;21.11;48.27
12785;BME280;6456;42.680;23.260;2022-10-31T11:51:49;95124.44;;;21.03;48.33
12785;BME280;6456;42.680;23.260;2022-10-31T11:54:23;95175.91;;;21.40;49.86
12785;BME280;6456;42.680;23.260;2022-10-31T11:56:51;95127.16;;;21.13;49.08
12785;BME280;6456;42.680;23.260;2022-10-31T11:59:22;95153.44;;;21.36;47.60
12785;BME280;6456;42.680;23.260;2022-10-31T12:01:51;95110.84;;;21.09;47.05
12785;BME280;6456;42.680;23.260;2022-10-31T12:04:28;95066.38;;;20.93;46.71
12785;BME280;6456;42.680;23.260;2022-10-31T12:06:58;95141.41;;;21.44;46.83
12785;BME280;6456;42.680;23.260;2022-10-31T12:09:27;95137.09;;;21.38;46.59
12785;BME280;6456;42.680;23.260;2022-10-31T12:12:18;95162.00;;;21.58;46.83
12785;BME280;6456;42.680;23.260;2022-10-31T12:14:59;95122.91;;;21.37;47.06
12785;BME280;6456;42.680;23.260;2022-10-31T12:17:37;95079.53;;;21.20;46.56
12785;BME280;6456;42.680;23.260;2022-10-31T12:20:18;95100.94;;;21.20;45.73
12785;BME280;6456;42.680;23.260;2022-10-31T12:22:58;95101.47;;;21.27;46.75
12785;BME280;6456;42.680;23.260;2022-10-31T12:25:37;95095.34;;;21.27;46.46
12785;BME280;6456;42.680;23.260;2022-10-31T12:28:30;95108.75;;;21.37;46.64
12785;BME280;6456;42.680;23.260;2022-10-31T12:31:14;95126.91;;;21.65;47.47
12785;BME280;6456;42.680;23.260;2022-10-31T12:33:53;95131.75;;;21.73;46.92
12785;BME280;6456;42.680;23.260;2022-10-31T12:36:32;95111.66;;;21.60;46.30
12785;BME280;6456;42.680;23.260;2022-10-31T12:39:34;95091.88;;;21.51;45.82
12785;BME280;6456;42.680;23.260;2022-10-31T12:42:12;95085.94;;;21.59;46.14
12785;BME280;6456;42.680;23.260;2022-10-31T12:48:03;95147.53;;;22.10;46.53
12785;BME280;6456;42.680;23.260;2022-10-31T12:50:49;95125.03;;;22.01;46.09
12785;BME280;6456;42.680;23.260;2022-10-31T12:53:27;95148.06;;;22.17;45.84
12785;BME280;6456;42.680;23.260;2022-10-31T12:56:10;95128.78;;;22.05;45.81
12785;BME280;6456;42.680;23.260;2022-10-31T12:58:46;95147.50;;;22.25;45.12
12785;BME280;6456;42.680;23.260;2022-10-31T13:01:16;95137.34;;;22.22;44.83
12785;BME280;6456;42.680;23.260;2022-10-31T13:03:50;95082.69;;;21.83;44.96
12785;BME280;6456;42.680;23.260;2022-10-31T13:06:20;95135.19;;;22.24;44.72
12785;BME280;6456;42.680;23.260;2022-10-31T13:08:51;95053.53;;;21.71;44.56
12785;BME280;6456;42.680;23.260;2022-10-31T13:11:23;95081.13;;;21.92;44.75
12785;BME280;6456;42.680;23.260;2022-10-31T13:13:58;95085.16;;;21.94;44.52
12785;BME280;6456;42.680;23.260;2022-10-31T13:16:30;95140.53;;;22.29;44.55
12785;BME280;6456;42.680;23.260;2022-10-31T13:19:03;95073.34;;;21.75;44.48
12785;BME280;6456;42.680;23.260;2022-10-31T13:21:37;95115.34;;;22.15;44.27
12785;BME280;6456;42.680;23.260;2022-10-31T13:24:13;95095.28;;;22.02;44.66